Time;durP1;ratioP1;P1;durP2;ratioP2;P2;SDS_P1;SDS_P2;PMS_P1;PMS_P2;Temp;Humidity;BMP_temperature;BMP_pressure;BME280_temperature;BME280_humidity;BME280_pressure;Samples;Min_cycle;Max_cycle;Signal;HPM_P1;HPM_P2
2024/01/23 00:04:35;;;;;;;19.80;3.43;;;9.60;92.70;;;;;;10528442;28;20245;-66
2024/01/23 00:09:38;;;;;;;19.63;3.90;;;9.60;92.40;;;;;;10476282;22;20215;-67
2024/01/23 00:14:42;;;;;;;14.75;3.47;;;9.60;92.40;;;;;;10446620;28;20241;-66
2024/01/23 00:19:47;;;;;;;14.57;3.40;;;9.60;92.30;;;;;;10448632;28;20269;-65
2024/01/23 00:24:54;;;;;;;12.10;3.67;;;9.60;92.40;;;;;;10448535;28;20212;-66
2024/01/23 00:29:57;;;;;;;17.10;3.73;;;9.50;92.60;;;;;;10444709;28;20265;-65
2024/01/23 00:35:13;;;;;;;13.50;3.70;;;9.50;92.70;;;;;;10446029;28;20587;-65
2024/01/23 00:40:19;;;;;;;15.20;3.57;;;9.40;92.80;;;;;;10448080;28;20215;-65
2024/01/23 00:45:22;;;;;;;15.60;3.30;;;9.30;92.70;;;;;;10443625;28;20277;-65
2024/01/23 00:50:30;;;;;;;18.77;3.80;;;9.30;92.90;;;;;;10447452;28;20196;-66
2024/01/23 00:55:34;;;;;;;16.70;3.67;;;9.20;92.80;;;;;;10447853;28;20187;-66
2024/01/23 01:00:39;;;;;;;14.37;3.40;;;9.20;92.80;;;;;;10452133;28;20253;-65
2024/01/23 01:05:45;;;;;;;12.40;2.97;;;9.20;92.60;;;;;;10448892;28;20224;-66
2024/01/23 01:10:49;;;;;;;15.83;3.57;;;9.20;92.70;;;;;;10448685;28;20199;-66
2024/01/23 01:15:53;;;;;;;16.93;3.77;;;9.20;92.60;;;;;;10445913;28;20215;-65
2024/01/23 01:21:01;;;;;;;11.80;3.10;;;9.20;92.40;;;;;;10447379;28;20192;-65
2024/01/23 01:26:05;;;;;;;15.60;3.53;;;9.20;92.30;;;;;;10438834;28;20282;-66
2024/01/23 01:31:13;;;;;;;17.03;3.33;;;9.20;92.20;;;;;;10451250;28;20330;-67
2024/01/23 01:36:27;;;;;;;15.90;3.73;;;9.20;92.10;;;;;;10444013;28;20273;-67
2024/01/23 01:41:31;;;;;;;14.97;4.07;;;9.10;91.70;;;;;;10444886;28;20196;-66
2024/01/23 01:46:40;;;;;;;11.67;3.00;;;9.10;92.30;;;;;;10447265;28;20254;-65
2024/01/23 01:51:45;;;;;;;15.60;3.73;;;9.10;92.40;;;;;;10445704;28;20199;-67
2024/01/23 01:57:03;;;;;;;12.83;3.17;;;9.00;92.70;;;;;;10443495;28;20219;-66
2024/01/23 02:02:12;;;;;;;14.53;3.60;;;8.90;92.30;;;;;;10444946;28;20844;-67
2024/01/23 02:07:19;;;;;;;14.43;3.50;;;8.90;92.40;;;;;;10436176;28;20701;-65
2024/01/23 02:12:29;;;;;;;15.60;3.40;;;8.90;92.20;;;;;;10445280;28;20225;-66
2024/01/23 02:17:39;;;;;;;14.00;2.97;;;8.90;92.10;;;;;;10447696;28;20243;-66
2024/01/23 02:22:44;;;;;;;15.37;3.20;;;8.90;92.20;;;;;;10448720;28;20253;-66
2024/01/23 02:27:51;;;;;;;16.17;3.40;;;8.90;92.30;;;;;;10452716;28;20269;-66
2024/01/23 02:32:55;;;;;;;11.80;3.00;;;8.90;92.10;;;;;;10451825;28;20275;-66
2024/01/23 02:37:59;;;;;;;16.17;3.03;;;8.90;91.80;;;;;;10458874;28;20273;-66
2024/01/23 02:43:04;;;;;;;17.33;3.60;;;8.80;92.10;;;;;;10456553;28;20203;-66
2024/01/23 02:48:10;;;;;;;15.87;3.37;;;8.60;92.40;;;;;;10424837;28;20274;-66
2024/01/23 02:53:14;;;;;;;12.10;2.70;;;8.60;92.10;;;;;;10437197;28;20364;-65
2024/01/23 02:58:20;;;;;;;13.57;2.90;;;8.60;91.90;;;;;;10438753;28;20251;-65
2024/01/23 03:03:24;;;;;;;13.97;2.73;;;8.60;91.80;;;;;;10431608;28;20231;-66
2024/01/23 03:08:27;;;;;;;17.57;3.20;;;8.50;91.40;;;;;;10431240;28;20282;-67
2024/01/23 03:13:32;;;;;;;13.27;3.50;;;8.50;91.70;;;;;;10434036;28;20273;-67
2024/01/23 03:18:56;;;;;;;10.67;2.70;;;8.50;91.60;;;;;;10435233;28;20254;-65
2024/01/23 03:24:00;;;;;;;14.73;3.53;;;8.60;91.20;;;;;;10438630;28;20823;-67
2024/01/23 03:29:05;;;;;;;13.93;3.10;;;8.60;91.20;;;;;;10434886;28;20250;-66
2024/01/23 03:34:08;;;;;;;16.13;3.13;;;8.60;91.40;;;;;;10436663;28;20752;-66
2024/01/23 03:39:12;;;;;;;20.10;3.83;;;8.60;91.30;;;;;;10438845;28;20247;-65
2024/01/23 03:44:18;;;;;;;9.97;3.10;;;8.60;91.40;;;;;;10443058;28;20211;-66
2024/01/23 03:49:27;;;;;;;13.67;2.97;;;8.60;91.50;;;;;;10438962;28;20250;-66
2024/01/23 03:54:32;;;;;;;14.20;3.13;;;8.60;91.20;;;;;;10447644;28;20859;-65
2024/01/23 03:59:37;;;;;;;23.67;3.67;;;8.60;91.30;;;;;;10437281;28;20690;-66
2024/01/23 04:04:45;;;;;;;15.07;3.10;;;8.60;91.30;;;;;;10447112;28;20200;-66
2024/01/23 04:09:51;;;;;;;18.17;3.23;;;8.60;91.50;;;;;;10443252;28;20305;-65
2024/01/23 04:15:05;;;;;;;12.37;2.60;;;8.60;91.30;;;;;;10436762;28;20204;-66
2024/01/23 04:20:13;;;;;;;17.57;2.90;;;8.60;91.10;;;;;;10439299;28;20224;-65
2024/01/23 04:25:20;;;;;;;11.83;2.67;;;8.60;91.00;;;;;;10442069;28;20235;-67
2024/01/23 04:30:28;;;;;;;13.87;3.27;;;8.60;91.10;;;;;;10445904;28;20659;-67
2024/01/23 04:35:33;;;;;;;14.77;3.07;;;8.50;91.10;;;;;;10444460;28;20199;-67
2024/01/23 04:40:39;;;;;;;11.63;2.90;;;8.50;91.00;;;;;;10447665;28;20228;-67
2024/01/23 04:45:44;;;;;;;15.53;3.67;;;8.50;90.90;;;;;;10446075;28;20270;-67
2024/01/23 04:50:48;;;;;;;14.00;3.07;;;8.40;91.10;;;;;;10447863;28;20649;-67
2024/01/23 04:55:57;;;;;;;17.83;2.70;;;8.40;91.10;;;;;;10446729;28;20242;-67
2024/01/23 05:01:03;;;;;;;14.53;3.23;;;8.40;90.90;;;;;;10440195;28;20275;-65
2024/01/23 05:06:11;;;;;;;16.37;3.50;;;8.30;91.10;;;;;;10424850;28;20251;-65
2024/01/23 05:11:15;;;;;;;12.93;2.90;;;8.30;91.20;;;;;;10430867;28;20272;-65
2024/01/23 05:16:20;;;;;;;13.90;2.87;;;8.30;91.20;;;;;;10419604;28;20252;-65
2024/01/23 05:21:23;;;;;;;13.97;3.00;;;8.20;91.20;;;;;;10421397;28;20231;-65
2024/01/23 05:26:27;;;;;;;14.90;3.73;;;8.20;91.20;;;;;;10424455;28;20308;-65
2024/01/23 05:31:32;;;;;;;13.23;3.60;;;8.10;91.30;;;;;;10413371;28;20288;-65
2024/01/23 05:36:35;;;;;;;15.87;3.47;;;8.10;91.40;;;;;;10423708;28;20292;-65
2024/01/23 05:41:39;;;;;;;14.90;3.70;;;8.10;91.40;;;;;;10413459;28;20934;-65
2024/01/23 05:46:44;;;;;;;16.70;3.37;;;8.10;91.50;;;;;;10416768;28;20363;-67
2024/01/23 05:51:47;;;;;;;17.87;3.30;;;8.00;91.50;;;;;;10417221;28;20239;-67
2024/01/23 05:56:51;;;;;;;16.67;2.97;;;8.00;91.50;;;;;;10419523;28;20231;-67
2024/01/23 06:01:56;;;;;;;12.10;2.57;;;8.00;91.50;;;;;;10425306;28;20235;-67
2024/01/23 06:07:00;;;;;;;14.80;3.30;;;8.00;91.50;;;;;;10417496;28;20294;-67
2024/01/23 06:12:04;;;;;;;14.23;2.77;;;7.90;91.50;;;;;;10416017;28;20234;-67
2024/01/23 06:17:09;;;;;;;18.10;3.50;;;7.90;91.60;;;;;;10413108;28;20243;-67
2024/01/23 06:22:14;;;;;;;20.47;3.70;;;7.90;91.60;;;;;;10409695;28;21030;-67
2024/01/23 06:27:18;;;;;;;11.70;3.30;;;7.80;91.60;;;;;;10424881;28;20258;-67
2024/01/23 06:32:24;;;;;;;13.77;3.53;;;7.80;91.60;;;;;;10419637;28;20378;-67
2024/01/23 06:37:27;;;;;;;14.60;3.30;;;7.80;91.60;;;;;;10416967;28;20248;-67
2024/01/23 06:42:32;;;;;;;17.77;3.27;;;7.70;91.60;;;;;;10419845;28;20240;-67
2024/01/23 06:47:36;;;;;;;13.63;3.97;;;7.70;91.70;;;;;;10423164;28;20285;-67
2024/01/23 06:52:40;;;;;;;13.27;2.93;;;7.70;91.70;;;;;;10418049;28;20310;-62
2024/01/23 06:57:44;;;;;;;14.80;3.70;;;7.70;91.90;;;;;;10417801;28;20244;-62
2024/01/23 07:02:48;;;;;;;18.43;3.50;;;7.70;92.00;;;;;;10424993;28;20262;-63
2024/01/23 07:07:54;;;;;;;13.53;3.23;;;7.70;92.00;;;;;;10429066;28;20254;-62
2024/01/23 07:12:58;;;;;;;14.03;3.07;;;7.70;91.80;;;;;;10420405;28;20710;-63
2024/01/23 07:18:03;;;;;;;17.80;3.43;;;7.70;92.00;;;;;;10427112;28;20244;-63
2024/01/23 07:23:07;;;;;;;17.73;3.17;;;7.70;92.00;;;;;;10425663;28;20235;-61
2024/01/23 07:28:10;;;;;;;15.47;3.77;;;7.70;92.00;;;;;;10425716;28;20253;-62
2024/01/23 07:33:34;;;;;;;16.53;4.03;;;7.70;92.00;;;;;;10425335;28;20277;-62
2024/01/23 07:38:38;;;;;;;16.83;4.30;;;7.70;91.90;;;;;;10432652;28;20243;-61
2024/01/23 07:43:42;;;;;;;12.03;3.33;;;7.70;92.10;;;;;;10427628;28;20224;-61
2024/01/23 07:48:47;;;;;;;14.93;3.93;;;7.70;91.90;;;;;;10424194;28;20313;-62
2024/01/23 07:53:51;;;;;;;13.80;3.40;;;7.70;92.20;;;;;;10432900;28;20201;-62
2024/01/23 07:58:54;;;;;;;19.65;4.40;;;7.70;92.00;;;;;;10426059;28;20891;-70
2024/01/23 08:03:59;;;;;;;12.77;3.37;;;7.70;92.10;;;;;;10426015;28;20243;-62
2024/01/23 08:09:04;;;;;;;13.20;3.70;;;7.70;91.80;;;;;;10424055;28;20853;-65
2024/01/23 08:14:08;;;;;;;27.37;8.67;;;7.70;92.40;;;;;;10422961;28;20281;-66
2024/01/23 08:19:13;;;;;;;13.80;3.73;;;7.70;92.20;;;;;;10422764;28;20248;-65
2024/01/23 08:24:17;;;;;;;15.53;3.43;;;7.60;92.00;;;;;;10426994;28;20231;-68
2024/01/23 08:29:20;;;;;;;18.47;3.33;;;7.60;92.00;;;;;;10424012;28;20339;-66
2024/01/23 08:34:25;;;;;;;17.90;3.77;;;7.60;92.30;;;;;;10422805;28;20313;-68
2024/01/23 08:39:29;;;;;;;18.33;4.57;;;7.60;92.30;;;;;;10420380;28;20256;-67
2024/01/23 08:44:33;;;;;;;12.10;3.67;;;7.60;92.40;;;;;;10421026;28;20286;-66
2024/01/23 08:49:37;;;;;;;14.47;3.70;;;7.50;92.50;;;;;;10433884;28;20285;-67
2024/01/23 08:54:41;;;;;;;15.23;3.83;;;7.50;92.30;;;;;;10421563;28;20280;-66
2024/01/23 08:59:45;;;;;;;17.73;4.43;;;7.50;92.60;;;;;;10414698;28;20254;-66
2024/01/23 09:04:50;;;;;;;15.47;3.50;;;7.50;92.30;;;;;;10419968;28;20284;-66
2024/01/23 09:09:54;;;;;;;21.03;4.00;;;7.60;92.20;;;;;;10429139;28;20285;-64
2024/01/23 09:14:57;;;;;;;14.10;3.43;;;7.60;92.30;;;;;;10420250;28;20231;-65
2024/01/23 09:20:04;;;;;;;17.33;3.70;;;7.60;92.30;;;;;;10415929;28;20791;-67
2024/01/23 09:25:09;;;;;;;18.17;3.93;;;7.60;92.20;;;;;;10426808;28;20236;-65
2024/01/23 09:30:13;;;;;;;20.87;3.70;;;7.60;92.20;;;;;;10415832;28;20354;-65
2024/01/23 09:35:18;;;;;;;15.80;3.83;;;7.70;92.20;;;;;;10420577;28;20586;-65
2024/01/23 09:40:22;;;;;;;16.37;3.97;;;7.70;92.20;;;;;;10420817;28;20308;-66
2024/01/23 09:45:28;;;;;;;19.80;4.47;;;7.70;92.30;;;;;;10417909;28;20227;-66
2024/01/23 09:50:36;;;;;;;16.43;3.80;;;7.80;92.20;;;;;;10419569;28;20246;-66
2024/01/23 09:55:40;;;;;;;20.70;3.93;;;7.80;92.20;;;;;;10412276;28;20232;-66
2024/01/23 10:00:43;;;;;;;18.63;4.53;;;7.90;92.00;;;;;;10415039;28;22076;-66
2024/01/23 10:05:49;;;;;;;17.90;4.53;;;7.90;92.00;;;;;;10411923;28;20710;-66
2024/01/23 10:10:57;;;;;;;21.30;4.63;;;8.00;92.00;;;;;;10418840;28;20327;-66
2024/01/23 10:16:01;;;;;;;14.27;4.07;;;8.00;91.90;;;;;;10411930;28;21676;-67
2024/01/23 10:21:06;;;;;;;19.43;4.30;;;8.10;91.90;;;;;;10417139;28;20294;-66
2024/01/23 10:26:10;;;;;;;15.07;4.83;;;8.10;91.90;;;;;;10417184;28;20711;-66
2024/01/23 10:31:13;;;;;;;16.63;4.00;;;8.20;91.90;;;;;;10427828;28;20801;-65
2024/01/23 10:36:19;;;;;;;18.97;4.47;;;8.20;91.80;;;;;;10428329;28;20693;-65
2024/01/23 10:41:28;;;;;;;18.87;4.80;;;8.30;91.80;;;;;;10427415;28;20235;-65
2024/01/23 10:46:32;;;;;;;17.00;4.40;;;8.40;92.00;;;;;;10420699;28;20305;-64
2024/01/23 10:51:37;;;;;;;16.60;4.20;;;8.40;91.70;;;;;;10422508;28;21155;-65
2024/01/23 10:56:44;;;;;;;16.37;3.90;;;8.50;91.50;;;;;;10419658;28;20263;-65
2024/01/23 11:01:54;;;;;;;20.00;4.20;;;8.50;91.40;;;;;;10420171;28;20741;-64
2024/01/23 11:07:07;;;;;;;15.23;3.57;;;8.60;91.30;;;;;;10419021;28;20259;-63
2024/01/23 11:12:17;;;;;;;18.17;4.63;;;8.60;91.40;;;;;;10427104;28;20281;-62
2024/01/23 11:17:23;;;;;;;15.47;4.80;;;8.70;91.30;;;;;;10431706;28;20259;-63
2024/01/23 11:22:28;;;;;;;24.23;6.10;;;8.70;91.10;;;;;;10422294;28;20469;-64
2024/01/23 11:27:34;;;;;;;15.93;4.27;;;9.00;90.90;;;;;;10434140;28;20618;-62
2024/01/23 11:32:38;;;;;;;20.43;6.20;;;9.10;90.70;;;;;;10419513;28;20314;-62
2024/01/23 11:37:50;;;;;;;21.40;4.67;;;9.10;90.70;;;;;;10420163;28;20247;-66
2024/01/23 11:42:58;;;;;;;20.53;4.63;;;9.10;90.70;;;;;;10426528;28;20281;-63
2024/01/23 11:48:03;;;;;;;19.57;4.60;;;9.20;90.50;;;;;;10421164;28;20247;-66
2024/01/23 11:53:08;;;;;;;20.37;5.53;;;9.20;90.70;;;;;;10417909;28;20321;-66
2024/01/23 11:58:14;;;;;;;22.10;5.03;;;9.20;90.50;;;;;;10420058;28;20877;-65
2024/01/23 12:03:21;;;;;;;15.77;5.10;;;9.20;90.60;;;;;;10418314;28;20500;-67
2024/01/23 12:08:26;;;;;;;19.47;4.43;;;9.30;90.60;;;;;;10417785;28;20267;-67
2024/01/23 12:13:30;;;;;;;18.33;4.67;;;9.30;90.50;;;;;;10418797;28;20228;-64
2024/01/23 12:18:34;;;;;;;20.77;4.40;;;9.40;90.70;;;;;;10427102;28;20782;-63
2024/01/23 12:23:39;;;;;;;18.30;4.17;;;9.40;90.20;;;;;;10425728;28;20247;-61
2024/01/23 12:28:44;;;;;;;22.37;4.07;;;9.40;90.00;;;;;;10426036;28;20255;-62
2024/01/23 12:33:48;;;;;;;16.50;3.63;;;9.40;90.10;;;;;;10424692;28;20862;-64
2024/01/23 12:38:56;;;;;;;17.03;3.77;;;9.50;90.10;;;;;;10427635;28;20255;-63
2024/01/23 12:44:00;;;;;;;23.40;4.13;;;9.50;90.00;;;;;;10446240;28;20203;-64
2024/01/23 12:49:05;;;;;;;15.37;3.70;;;9.60;90.20;;;;;;10429198;28;20250;-63
2024/01/23 12:54:10;;;;;;;18.87;4.27;;;9.70;90.10;;;;;;10420549;28;20227;-63
2024/01/23 12:59:14;;;;;;;21.73;4.30;;;9.70;89.50;;;;;;10425078;28;20227;-64
2024/01/23 13:04:18;;;;;;;21.67;3.67;;;9.70;90.10;;;;;;10436330;28;20222;-64
2024/01/23 13:09:23;;;;;;;15.93;3.80;;;9.70;90.20;;;;;;10438025;28;20258;-67
2024/01/23 13:14:28;;;;;;;18.17;3.90;;;9.70;89.50;;;;;;10439793;28;20195;-65
2024/01/23 13:19:32;;;;;;;22.53;3.97;;;9.60;89.40;;;;;;10438434;28;20750;-65
2024/01/23 13:24:37;;;;;;;15.83;3.77;;;9.60;89.80;;;;;;10447151;28;20207;-67
2024/01/23 13:29:41;;;;;;;15.30;3.77;;;9.50;90.00;;;;;;10435788;28;20243;-65
2024/01/23 13:34:45;;;;;;;20.00;4.87;;;9.50;90.20;;;;;;10432188;28;20362;-65
2024/01/23 13:39:52;;;;;;;17.20;4.40;;;9.50;90.40;;;;;;10445254;28;20277;-65
2024/01/23 13:44:56;;;;;;;21.70;4.10;;;9.50;90.50;;;;;;10446982;28;20199;-66
2024/01/23 13:50:00;;;;;;;19.23;4.37;;;9.50;90.50;;;;;;10447300;28;20224;-66
2024/01/23 13:55:06;;;;;;;19.77;4.37;;;9.50;90.50;;;;;;10448579;28;20219;-67
2024/01/23 14:00:12;;;;;;;25.23;4.83;;;9.50;90.80;;;;;;10447922;28;20682;-65
2024/01/23 14:05:16;;;;;;;21.27;5.63;;;9.50;90.60;;;;;;10445358;28;20296;-63
2024/01/23 14:10:22;;;;;;;21.87;4.77;;;9.60;90.70;;;;;;10453448;28;20224;-63
2024/01/23 14:15:26;;;;;;;20.30;4.70;;;9.60;90.80;;;;;;10451855;28;20204;-63
2024/01/23 14:20:29;;;;;;;19.83;5.67;;;9.60;90.80;;;;;;10448380;28;20585;-62
2024/01/23 14:25:34;;;;;;;23.93;4.87;;;9.60;90.90;;;;;;10447756;28;20672;-62
2024/01/23 14:30:38;;;;;;;19.67;4.67;;;9.60;91.10;;;;;;10454126;28;20215;-65
2024/01/23 14:35:44;;;;;;;15.50;4.20;;;9.60;91.10;;;;;;10431870;28;20200;-66
2024/01/23 14:40:49;;;;;;;19.13;3.97;;;9.60;91.20;;;;;;10417919;28;20223;-67
2024/01/23 14:45:53;;;;;;;23.33;4.57;;;9.60;91.30;;;;;;10417165;28;20224;-68
2024/01/23 14:50:57;;;;;;;18.27;4.50;;;9.60;91.50;;;;;;10435209;28;20304;-65
2024/01/23 14:56:02;;;;;;;19.50;4.40;;;9.60;91.40;;;;;;10450982;28;20227;-66
2024/01/23 15:01:07;;;;;;;17.02;3.63;;;9.60;91.60;;;;;;10450335;28;20215;-68
2024/01/23 15:06:10;;;;;;;21.57;4.37;;;9.60;91.60;;;;;;10452716;28;20230;-68
2024/01/23 15:11:15;;;;;;;18.57;4.67;;;9.60;91.60;;;;;;10451736;28;20200;-69
2024/01/23 15:16:19;;;;;;;18.47;4.23;;;9.60;91.70;;;;;;10452285;28;20719;-69
2024/01/23 15:21:23;;;;;;;24.50;4.63;;;9.50;91.90;;;;;;10439564;28;20419;-64
2024/01/23 15:26:28;;;;;;;24.83;4.53;;;9.50;92.10;;;;;;10450352;28;21578;-63
2024/01/23 15:31:33;;;;;;;19.33;4.17;;;9.40;92.40;;;;;;10451170;28;20216;-62
2024/01/23 15:36:37;;;;;;;13.13;4.40;;;9.40;92.80;;;;;;10450929;28;20223;-67
2024/01/23 15:41:42;;;;;;;19.57;4.50;;;9.40;92.90;;;;;;10453220;28;20192;-63
2024/01/23 15:46:45;;;;;;;23.53;4.43;;;9.30;93.40;;;;;;10453811;28;20609;-65
2024/01/23 15:51:49;;;;;;;22.83;4.60;;;9.20;93.50;;;;;;10453245;28;20309;-65
2024/01/23 15:56:55;;;;;;;17.17;4.53;;;9.20;93.60;;;;;;10453192;28;20325;-64
2024/01/23 16:01:58;;;;;;;16.00;4.10;;;9.20;94.20;;;;;;10449027;28;20197;-65
2024/01/23 16:07:02;;;;;;;24.63;5.20;;;9.10;94.10;;;;;;10448714;28;20231;-64
2024/01/23 16:12:07;;;;;;;17.10;4.53;;;9.10;94.20;;;;;;10455603;28;20211;-65
2024/01/23 16:17:12;;;;;;;19.60;5.10;;;9.10;94.60;;;;;;10452415;28;20687;-66
2024/01/23 16:22:16;;;;;;;22.10;4.47;;;9.10;94.80;;;;;;10449981;28;20263;-63
2024/01/23 16:27:22;;;;;;;20.70;4.78;;;9.10;94.60;;;;;;10435077;28;20215;-64
2024/01/23 16:32:26;;;;;;;17.77;4.87;;;9.10;94.90;;;;;;10447449;28;20265;-65
2024/01/23 16:37:29;;;;;;;19.53;4.97;;;9.00;95.10;;;;;;10451556;28;20211;-65
2024/01/23 16:42:34;;;;;;;18.73;4.33;;;9.00;95.10;;;;;;10454618;28;20690;-63
2024/01/23 16:47:38;;;;;;;18.83;5.33;;;9.00;95.50;;;;;;10451344;28;20242;-63
2024/01/23 16:52:42;;;;;;;29.27;8.27;;;9.00;95.40;;;;;;10450429;28;20232;-65
2024/01/23 16:57:46;;;;;;;22.33;5.23;;;9.00;96.10;;;;;;10453274;28;20219;-66
2024/01/23 17:02:50;;;;;;;21.60;5.47;;;9.00;95.80;;;;;;10453189;28;20196;-62
2024/01/23 17:07:54;;;;;;;23.63;7.80;;;8.90;96.00;;;;;;10451184;28;20660;-65
2024/01/23 17:13:00;;;;;;;23.13;7.10;;;8.90;96.20;;;;;;10451310;28;20223;-64
2024/01/23 17:18:05;;;;;;;20.00;5.90;;;8.90;95.90;;;;;;10455302;28;20228;-64
2024/01/23 17:23:09;;;;;;;21.25;7.20;;;8.90;96.30;;;;;;10448696;28;20179;-64
2024/01/23 17:28:15;;;;;;;21.00;6.60;;;8.90;96.30;;;;;;10448676;28;20215;-65
2024/01/23 17:33:19;;;;;;;32.65;9.05;;;8.90;96.90;;;;;;10448452;28;20231;-64
2024/01/23 17:38:23;;;;;;;23.43;6.33;;;8.90;96.80;;;;;;10448798;28;20281;-64
2024/01/23 17:43:28;;;;;;;17.67;5.28;;;8.90;96.80;;;;;;10446990;28;20234;-66
2024/01/23 17:48:31;;;;;;;21.27;6.13;;;8.90;96.60;;;;;;10448775;28;20223;-64
2024/01/23 17:53:37;;;;;;;30.93;8.37;;;8.90;96.70;;;;;;10450587;28;20250;-65
2024/01/23 17:58:42;;;;;;;17.93;6.20;;;8.90;97.00;;;;;;10447814;28;20589;-64
2024/01/23 18:03:46;;;;;;;12.37;5.33;;;8.90;97.30;;;;;;10445144;28;20444;-65
2024/01/23 18:08:49;;;;;;;10.32;3.78;;;9.10;98.50;;;;;;10443516;28;20897;-64
2024/01/23 18:13:54;;;;;;;12.33;3.87;;;9.10;97.50;;;;;;10428903;28;20638;-65
2024/01/23 18:18:58;;;;;;;11.23;5.10;;;9.10;97.90;;;;;;10445415;28;20224;-65
2024/01/23 18:24:02;;;;;;;10.57;2.93;;;9.00;97.80;;;;;;10461280;28;20732;-65
2024/01/23 18:29:07;;;;;;;9.60;3.60;;;9.00;97.80;;;;;;10467106;28;20246;-66
2024/01/23 18:34:10;;;;;;;9.33;2.47;;;9.00;98.00;;;;;;10454537;28;20272;-65
2024/01/23 18:39:15;;;;;;;10.47;3.07;;;8.90;98.00;;;;;;10437060;28;20243;-65
2024/01/23 18:44:22;;;;;;;6.83;2.50;;;8.90;98.40;;;;;;10434997;28;20677;-66
2024/01/23 18:49:26;;;;;;;8.20;2.73;;;8.90;98.40;;;;;;10451310;28;20700;-65
2024/01/23 18:54:30;;;;;;;8.97;2.60;;;8.90;98.20;;;;;;10442205;28;20251;-65
2024/01/23 18:59:34;;;;;;;6.50;2.55;;;8.90;99.00;;;;;;10446044;28;20282;-66
2024/01/23 19:04:41;;;;;;;11.17;4.00;;;8.90;98.40;;;;;;10440853;28;20261;-64
2024/01/23 19:09:44;;;;;;;8.70;2.73;;;8.90;98.80;;;;;;10446106;28;20259;-67
2024/01/23 19:14:50;;;;;;;10.90;2.83;;;8.90;99.60;;;;;;10435036;28;20216;-65
2024/01/23 19:19:53;;;;;;;6.33;2.43;;;8.90;99.20;;;;;;10443103;28;20230;-66
2024/01/23 19:24:57;;;;;;;6.73;2.40;;;8.90;99.90;;;;;;10448591;28;20213;-66
2024/01/23 19:30:02;;;;;;;5.70;2.22;;;8.90;99.80;;;;;;10431246;28;20253;-61
2024/01/23 19:35:07;;;;;;;7.70;2.80;;;8.90;99.90;;;;;;10429996;28;20300;-62
2024/01/23 19:40:12;;;;;;;5.80;2.20;;;9.00;99.90;;;;;;10440999;28;20694;-67
2024/01/23 19:45:17;;;;;;;8.07;3.00;;;8.90;99.90;;;;;;10436352;28;20348;-67
2024/01/23 19:50:21;;;;;;;6.87;3.07;;;9.00;99.90;;;;;;10432358;28;20215;-67
2024/01/23 19:55:34;;;;;;;8.40;3.37;;;9.00;99.90;;;;;;10431103;28;20281;-66
2024/01/23 20:00:39;;;;;;;8.47;3.20;;;9.00;99.90;;;;;;10432034;28;20187;-63
2024/01/23 20:05:42;;;;;;;7.97;3.93;;;9.00;99.90;;;;;;10433831;28;20219;-62
2024/01/23 20:10:46;;;;;;;8.53;3.60;;;9.00;99.90;;;;;;10436508;28;20205;-62
2024/01/23 20:15:52;;;;;;;8.07;3.45;;;9.10;99.90;;;;;;10374820;23;20306;-66
2024/01/23 20:20:56;;;;;;;8.60;3.58;;;9.10;99.90;;;;;;10347080;28;21034;-65
2024/01/23 20:26:00;;;;;;;8.47;3.17;;;9.10;99.90;;;;;;10357050;28;20263;-66
2024/01/23 20:31:05;;;;;;;9.03;3.73;;;9.20;99.90;;;;;;10353103;28;20224;-66
2024/01/23 20:36:10;;;;;;;8.27;3.93;;;9.20;99.90;;;;;;10365193;28;20282;-65
2024/01/23 20:41:14;;;;;;;7.47;3.47;;;9.30;99.90;;;;;;10355007;28;20225;-63
2024/01/23 20:46:19;;;;;;;8.30;3.20;;;9.30;99.90;;;;;;10357921;28;20887;-63
2024/01/23 20:51:23;;;;;;;11.10;4.23;;;9.40;99.90;;;;;;10359188;28;20623;-62
2024/01/23 20:56:27;;;;;;;8.43;3.20;;;9.50;99.90;;;;;;10362259;28;20252;-59
2024/01/23 21:01:32;;;;;;;6.72;3.33;;;9.50;99.90;;;;;;10360972;28;20232;-64
2024/01/23 21:06:35;;;;;;;11.43;3.60;;;9.60;99.90;;;;;;10366194;28;20684;-63
2024/01/23 21:11:42;;;;;;;8.10;3.03;;;9.60;99.90;;;;;;10363698;28;20467;-64
2024/01/23 21:16:47;;;;;;;7.40;3.77;;;9.70;99.90;;;;;;10363966;28;20245;-64
2024/01/23 21:21:51;;;;;;;5.87;3.20;;;9.70;99.90;;;;;;10364335;28;20270;-63
2024/01/23 21:26:56;;;;;;;8.75;3.40;;;9.70;99.90;;;;;;10363396;28;20664;-64
2024/01/23 21:32:02;;;;;;;10.00;3.80;;;9.70;99.90;;;;;;10360806;28;20232;-65
2024/01/23 21:37:06;;;;;;;5.53;3.58;;;9.80;99.90;;;;;;10358453;28;20248;-64
2024/01/23 21:42:09;;;;;;;8.70;3.70;;;9.80;99.90;;;;;;10368012;28;20974;-64
2024/01/23 21:47:15;;;;;;;11.25;4.20;;;9.80;99.90;;;;;;10364373;28;20247;-64
2024/01/23 21:52:20;;;;;;;9.27;4.00;;;9.90;99.90;;;;;;10364004;28;20284;-65
2024/01/23 21:57:24;;;;;;;8.40;3.85;;;9.90;99.90;;;;;;10367220;28;20251;-64
2024/01/23 22:02:29;;;;;;;10.45;3.30;;;10.00;99.90;;;;;;10363143;28;20252;-65
2024/01/23 22:07:33;;;;;;;7.93;3.13;;;10.10;99.90;;;;;;10362688;28;20228;-64
2024/01/23 22:12:36;;;;;;;10.07;3.10;;;10.10;99.90;;;;;;10361944;28;20256;-64
2024/01/23 22:17:42;;;;;;;8.43;3.20;;;10.20;99.90;;;;;;10324493;28;20609;-64
2024/01/23 22:22:46;;;;;;;7.85;3.20;;;10.30;99.90;;;;;;10387413;28;20699;-62
2024/01/23 22:27:49;;;;;;;9.63;3.42;;;10.40;99.90;;;;;;10373409;28;20339;-61
2024/01/23 22:32:57;;;;;;;8.95;3.45;;;10.50;99.90;;;;;;10374638;28;20220;-61
2024/01/23 22:38:00;;;;;;;10.35;2.90;;;10.60;99.90;;;;;;10373449;28;20204;-62
2024/01/23 22:43:04;;;;;;;8.23;3.08;;;10.70;99.90;;;;;;10373405;28;20216;-62
2024/01/23 22:48:09;;;;;;;7.70;3.10;;;10.80;99.90;;;;;;10373281;28;20219;-61
2024/01/23 22:53:13;;;;;;;9.27;3.50;;;10.90;99.90;;;;;;10400525;28;20208;-60
2024/01/23 22:58:17;;;;;;;11.95;3.20;;;10.90;99.90;;;;;;10414180;28;20193;-62
2024/01/23 23:03:22;;;;;;;11.45;3.78;;;11.00;99.90;;;;;;10394014;28;20217;-62
2024/01/23 23:08:25;;;;;;;8.80;3.20;;;11.10;99.90;;;;;;10372891;28;20262;-61
2024/01/23 23:13:29;;;;;;;8.30;3.40;;;11.10;99.90;;;;;;10372649;28;20225;-61
2024/01/23 23:18:34;;;;;;;7.07;3.30;;;11.20;99.90;;;;;;10372759;28;20251;-62
2024/01/23 23:23:38;;;;;;;14.57;4.22;;;11.20;99.90;;;;;;10372192;28;20244;-62
2024/01/23 23:28:42;;;;;;;9.40;3.40;;;11.20;99.90;;;;;;10372034;28;20249;-63
2024/01/23 23:33:47;;;;;;;11.80;3.25;;;11.30;99.90;;;;;;10371874;28;20264;-63
2024/01/23 23:38:51;;;;;;;10.80;3.65;;;11.40;99.90;;;;;;10372021;28;20290;-63
2024/01/23 23:43:55;;;;;;;9.85;3.28;;;11.40;99.90;;;;;;10371300;28;20217;-63
2024/01/23 23:49:01;;;;;;;9.90;3.65;;;11.50;99.90;;;;;;10371074;28;20220;-63
2024/01/23 23:54:05;;;;;;;12.18;3.72;;;11.60;99.90;;;;;;10370553;28;20239;-63
2024/01/23 23:59:09;;;;;;;13.68;3.50;;;11.60;99.90;;;;;;10377723;28;20209;-62
